• Join FlightAware (Why Join?)
  • Login
  • US Flag 
12:37PM EDT


 

Airport Tracker/Info


-or-


 

Live Flight TrackerFlight Track Log ✈ RPA4907 ✈ 11-Jul-2013 ✈ KBWI - KEWR

Flight Track Log - Related Links

Times and Time Zones

All times are in EDT time to prevent confusion due to time zone crossing. See the RPA4907 flight status page for this flight to view local times or setup timezone preferences in your user account.

Time Position Orientation Groundspeed Altitude Reporting Facility
EDT Latitude Longitude Course Direction KTS MPH feet Rate Location/Type
06:23PM 39.1833 -76.7000 42° Northeast 179 206 1,300  Level Potomac TRACON
06:24PM 39.2167 -76.6833 21° North 214 246 3,400 2,400 Climbing Potomac TRACON
06:25PM 39.2000 -76.6000 104° East 217 250 6,200 2,400 Climbing Potomac TRACON
06:26PM 39.1885 -76.1653 46° Northeast  Level FlightAware Approximate
06:26PM 39.2000 -76.5333 90° East 232 267 8,500  Level Potomac TRACON
06:27PM 39.2657 -76.0791 46° Northeast  Level FlightAware Approximate
06:27PM 39.2333 -76.4500 63° Northeast 244 281 10,000  Level Potomac TRACON
06:28PM 39.3394 -75.9874 42° Northeast  Level FlightAware Approximate
06:28PM 39.2667 -76.3667 63° Northeast 278 320 11,000  Level Potomac TRACON
06:29PM 39.3000 -76.2667 67° East 311 358 11,100  Climbing Potomac TRACON
06:30PM 39.3500 -76.1667 57° Northeast 321 369 11,100 -120 Level Potomac TRACON
06:32PM 39.4333 -75.9667 62° Northeast 329 379 10,900 -120 Descending Philadelphia TRACON
06:32PM 39.4667 -75.8833 63° Northeast 327 376 10,900  Level Philadelphia TRACON
06:33PM 39.5167 -75.7833 57° Northeast 324 373 10,900  Level Philadelphia TRACON
06:34PM 39.5500 -75.6833 67° East 324 373 10,900  Level Philadelphia TRACON
06:35PM 39.6000 -75.5667 61° Northeast 324 373 11,000  Climbing Philadelphia TRACON
06:36PM 39.6500 -75.4667 57° Northeast 326 375 10,900 -60 Descending Philadelphia TRACON
06:37PM 39.7000 -75.3667 57° Northeast 325 374 10,900 -300 Level Philadelphia TRACON
06:38PM 39.7333 -75.2667 67° East 325 374 10,400 -540 Descending Philadelphia TRACON
06:40PM 39.7833 -75.1667 57° Northeast 301 346 9,800 -600 Descending Philadelphia TRACON
06:40PM 39.8167 -75.0833 62° Northeast 300 345 9,300 -540 Descending Philadelphia TRACON
06:41PM 39.8500 -75.0000 62° Northeast 291 335 8,900 -600 Descending Philadelphia TRACON
06:42PM 39.8667 -74.8833 79° East 287 330 8,100 -780 Descending Philadelphia TRACON
06:43PM 39.9333 -74.8167 37° Northeast 283 326 7,300 -300 Descending Philadelphia TRACON
06:45PM 39.9933 -74.7722 52° Northeast  Level FlightAware Approximate
06:46PM 40.0667 -74.6500 27° Northeast 273 314 7,100  Level New York TRACON
06:47PM 40.1333 -74.6000 30° Northeast 270 311 7,100 -60 Level New York TRACON
06:48PM 40.2000 -74.5833 11° North 265 305 7,000 -420 Descending New York TRACON
06:49PM 40.2667 -74.5667 11° North 234 269 6,300 -600 Descending New York TRACON
06:50PM 40.3167 -74.5167 37° Northeast 239 275 5,900 -600 Descending New York TRACON
06:51PM 40.3500 -74.4333 62° Northeast 227 261 5,100 -420 Descending New York TRACON
06:52PM 40.3763 -74.3603 27° Northeast  Level FlightAware Approximate
06:52PM 40.3667 -74.3667 72° East 200 230 5,100  Level New York TRACON
06:53PM 40.4167 -74.3333 27° Northeast 192 221 4,400 -1,020 Descending New York TRACON
06:54PM 40.4667 -74.3000 27° Northeast 184 212 3,100 -660 Descending New York TRACON
06:55PM 40.5167 -74.2833 14° North 166 191 3,100 -180 Level New York TRACON
06:56PM 40.5500 -74.2500 37° Northeast 168 193 2,800 -600 Descending New York TRACON
06:57PM 40.6000 -74.2333 14° North 165 190 1,900 -900 Descending New York TRACON